AirNav   TITAN Aviation Fuels
 
 474 users online  

01TX Ox Ranch Airport
Uvalde, Texas, USA

GOING TO UVALDE?


FAA INFORMATION EFFECTIVE 15 JULY 2021

Location

FAA Identifier: 01TX
Lat/Long: 29-27-41.3450N 100-06-51.4150W
29-27.689083N 100-06.856917W
29.4614847,-100.1142819
(estimated)
Elevation: 1301.6 ft. / 397 m (estimated)
Variation: 04E (2025)
From city: 23 miles NW of UVALDE, TX
Time zone: UTC -5 (UTC -6 during Standard Time)
Zip code: 78833

Airport Operations

Airport use: Private use. Permission required prior to landing
Activation date: 09/2015
Control tower: no
ARTCC: HOUSTON CENTER
FSS: SAN ANGELO FLIGHT SERVICE STATION
Attendance: UNATNDD
Segmented circle: no

Nearby radio navigation aids

VOR radial/distance  VOR name  Freq  Var
RSGr154/34.6ROCKSPRINGS VORTAC114.5510E
DLFr073/34.9LAUGHLIN VORTAC114.4007E

 
NDB name  Hdg/Dist  Freq  Var  ID
SPOFFORD033/25.135608EPFO .--. ..-. ---
UVALDE303/26.528107EUVA ..- ...- .-
LA FONDA RANCH051/30.726909EBRX -... .-. -..-
LA PRYOR328/34.722309ELKX .-.. -.- -..-
CHAPARROSA RANCH345/35.538505ECPZ -.-. .--. --..

Airport Services

Runway Information

Runway 17/35

Dimensions: 5786 x 70 ft. / 1764 x 21 m
Surface: concrete, in fair condition
RUNWAY 17  RUNWAY 35
Latitude: 29-28.166340N29-27.211818N
Longitude: 100-06.852030W100-06.861798W
Elevation: 1301.6 ft.1257.0 ft.
Traffic pattern: rightright
Runway heading: 177 magnetic, 181 true357 magnetic, 001 true
Markings: nonprecision, in fair conditionnonprecision, in fair condition
Touchdown point: yes, no lightsyes, no lights

Airport Ownership and Management from official FAA records

Ownership: Privately-owned
Owner: BRENT OXLEY
1946 PRIVATE ROAD 2485
UVLADE, TX 78801
Phone 817-677-9899
BRENT@OXLEY.COM
Manager: CHRISTOPHER TYSON
1946 PRIVATE ROAD 2485
UVALDE, TX 78801
Phone 281-744-0372
NICK@NICKTYSON.COM

Airport Operational Statistics

Aircraft based on the field: 1
Single engine airplanes: 1
    

Additional Remarks

FOR CD CTC LAUGHLIN APCH AT 830-298-4350, WHEN APCH CLSD CTC HOUSTON ARTCC AT 281-230-5622.
FOR FLT FLWG CTC DEL RIO APP 127.775 M-F 0800-1700, HOUSTON CTR 134.950
PERMIT RQD, OXRANCHAIRPORT.COM FOR INSTRUCTIONS
AIRCRAFT WINGSPAN RESTRICTED TO 70 FT.

Instrument Procedures

There are no published instrument procedures at 01TX.

Some nearby airports with instrument procedures:

KUVA - Garner Field Airport (25 nm SE)
KECU - Edwards County Airport (29 nm N)
KDLF - Laughlin AFB Airport (35 nm W)
5T9 - Maverick County Memorial International Airport (42 nm SW)
KDRT - Del Rio International Airport (43 nm W)
 
Loc | Ops | Rwys | IFR | FBO | Links
Com | Nav | Svcs | Stats | Notes
Aerial photo
WARNING: Photo may not be current or correct
Aerial photo of 01TX (Ox Ranch Airport)
Photo by Nick Tyson
Taken in 2016

Do you have a better or more recent aerial photo of Ox Ranch Airport that you would like to share? If so, please send us your photo.

 
Airport distance calculator
Flying to Ox Ranch Airport? Find the distance to fly.

From to 01TX

Sunrise and sunset
Times for 24-Jul-2021
 Local
(UTC-5)
 Zulu
(UTC)
Morning civil twilight06:3111:31
Sunrise06:5711:57
Sunset20:3701:37
Evening civil twilight21:0302:03

Current date and time
Zulu (UTC)  24-Jul-2021 06:13:19
Local (UTC-5)  24-Jul-2021 01:13:19
 
METAR
KUVA 
25nm SE 
240555Z AUTO 10006KT 10SM CLR 26/23 A3007 RMK AO2 T02560230 10343 20256 403520231
KT70 
28nm SW 
240558Z AUTO 10007KT 10SM R13/5500FT CLR 26/21 A2997 RMK AO2 SLP135 T02620206 10346 20262 403490236 52018 PNO $
KECU 
29nm N 
240555Z AUTO 15011KT 10SM FEW029 BKN035 25/19 A3015 RMK AO2
KDLF 
35nm W 
240556Z AUTO 12010KT 10SM CLR 28/20 A3002 RMK AO2 SLP152 T02780196 10345 20278 403480237 51021 $
K5T9 
42nm SW 
240555Z AUTO 12006KT 10SM CLR 27/18 A3000 RMK A01
KDRT 
42nm W 
240553Z AUTO 11010KT 10SM CLR 30/19 A3001 RMK AO2 SLP148 T03000189 10367 20300 403720256 51020
TAF
KDLF 
35nm W 
232300Z 2323/2501 15012G20KT 9999 FEW030 SCT200 QNH2992INS BECMG 2401/2402 14009KT 9999 VCSH SCT060 QNH2994INS BECMG 2410/2411 VRB06KT 9999 NSW SCT015 BKN120 QNH2998INS TEMPO 2413/2415 BKN012 BECMG 2415/2416 14012G18KT 9999 SCT030 SCT150 QNH2988INS TX36/2323Z TN24/2412Z LAST NO AMDS AFT 2323 NEXT 2519
KDRT 
42nm W 
240523Z 2406/2506 11009KT P6SM BKN250 TEMPO 2413/2416 BKN025 FM241600 14014G24KT P6SM FEW050 FM250200 11010KT P6SM SCT250
NOTAMs
Click for the latest NOTAMs
NOTAMs are issued by the DoD/FAA and will open in a separate window not controlled by AirNav.

 

 
 

Would you like to see your business listed on this page?

 If your business provides an interesting product or service to pilots, flight crews, aircraft, or users of the Ox Ranch Airport, you should consider listing it here.  To start the listing process, click on the button below
 
Add a business
 

Other Pages about Ox Ranch Airport

Update a link
 
Copyright © AirNav, LLC. All rights reserved. Privacy Policy  Contact